createdAt,value
2018-03-22T00:00:01.022Z,85.10
2018-03-22T00:02:29.315Z,85.68
2018-03-22T00:04:58.384Z,85.63
2018-03-22T00:07:26.811Z,85.99
2018-03-22T00:09:55.225Z,85.87
2018-03-22T00:12:24.427Z,85.97
2018-03-22T00:14:52.745Z,86.01
2018-03-22T00:17:21.173Z,85.34
2018-03-22T00:19:49.670Z,85.39
2018-03-22T00:22:29.870Z,84.87
2018-03-22T00:24:58.170Z,84.70
2018-03-22T00:27:26.560Z,84.72
2018-03-22T00:29:54.939Z,84.46
2018-03-22T00:32:25.179Z,83.98
2018-03-22T00:34:56.961Z,83.45
2018-03-22T00:37:25.491Z,82.64
2018-03-22T00:39:54.209Z,82.96
2018-03-22T00:42:22.518Z,83.31
2018-03-22T00:44:50.875Z,83.41
2018-03-22T00:47:19.234Z,83.44
2018-03-22T00:49:49.344Z,83.14
2018-03-22T00:52:19.496Z,83.02
2018-03-22T00:54:47.854Z,84.57
2018-03-22T00:57:16.207Z,85.16
2018-03-22T00:59:44.586Z,85.59
2018-03-22T01:02:15.547Z,86.15
2018-03-22T01:04:44.111Z,86.03
2018-03-22T01:07:14.123Z,86.07
2018-03-22T01:09:44.334Z,86.80
2018-03-22T01:12:14.690Z,87.22
2018-03-22T01:14:47.170Z,87.27
2018-03-22T01:17:15.617Z,87.52
2018-03-22T01:19:43.910Z,87.51
2018-03-22T01:22:12.285Z,87.07
2018-03-22T01:24:41.499Z,86.67
2018-03-22T01:27:12.920Z,86.94
2018-03-22T01:29:42.454Z,86.55
2018-03-22T01:32:11.068Z,86.21
2018-03-22T01:34:39.386Z,86.39
2018-03-22T01:37:07.828Z,86.80
2018-03-22T01:39:38.904Z,86.80
2018-03-22T01:42:07.706Z,86.98
2018-03-22T01:44:36.107Z,87.18
2018-03-22T01:47:04.518Z,86.83
2018-03-22T01:49:32.912Z,86.44
2018-03-22T01:52:04.449Z,85.99
2018-03-22T01:54:33.128Z,85.96
2018-03-22T01:57:01.426Z,86.31
2018-03-22T01:59:29.776Z,86.14
2018-03-22T02:01:58.314Z,86.11
2018-03-22T02:04:29.224Z,86.28
2018-03-22T02:06:57.656Z,86.33
2018-03-22T02:09:26.101Z,86.02
2018-03-22T02:11:54.520Z,85.50
2018-03-22T02:14:23.100Z,85.62
2018-03-22T02:16:59.009Z,85.75
2018-03-22T02:19:27.326Z,85.62
2018-03-22T02:21:55.689Z,85.45
2018-03-22T02:24:24.015Z,85.58
2018-03-22T02:26:52.404Z,85.63
2018-03-22T02:29:20.723Z,85.55
2018-03-22T02:31:49.223Z,85.49
2018-03-22T02:34:17.710Z,85.26
2018-03-22T02:36:47.623Z,85.44
2018-03-22T02:39:16.116Z,85.49
2018-03-22T02:41:46.011Z,85.53
2018-03-22T02:44:14.388Z,85.29
2018-03-22T02:46:46.759Z,85.82
2018-03-22T02:49:15.362Z,85.72
2018-03-22T02:51:43.723Z,85.91
2018-03-22T02:54:16.811Z,86.49
2018-03-22T02:56:45.398Z,86.51
2018-03-22T02:59:14.493Z,86.23
2018-03-22T03:01:44.713Z,86.19
2018-03-22T03:04:13.209Z,86.75
2018-03-22T03:06:41.595Z,86.50
2018-03-22T03:09:09.966Z,86.47
2018-03-22T03:11:38.349Z,86.50
2018-03-22T03:14:06.824Z,86.25
2018-03-22T03:16:37.454Z,85.95
2018-03-22T03:19:06.422Z,86.32
2018-03-22T03:21:35.505Z,86.27
2018-03-22T03:24:03.907Z,86.34
2018-03-22T03:26:32.442Z,86.57
2018-03-22T03:29:01.546Z,86.59
2018-03-22T03:31:29.888Z,86.58
2018-03-22T03:34:01.113Z,86.61
2018-03-22T03:36:29.610Z,86.85
2018-03-22T03:38:58.125Z,87.12
2018-03-22T03:41:27.353Z,87.31
2018-03-22T03:43:55.962Z,87.22
2018-03-22T03:46:26.080Z,87.24
2018-03-22T03:48:56.043Z,87.25
2018-03-22T03:51:24.469Z,87.39
2018-03-22T03:53:54.574Z,87.22
2018-03-22T03:56:22.967Z,87.10
2018-03-22T03:58:52.081Z,87.10
2018-03-22T04:01:20.506Z,87.26
2018-03-22T04:03:51.658Z,87.60
2018-03-22T04:06:20.748Z,87.74
2018-03-22T04:08:49.896Z,87.81
2018-03-22T04:11:18.234Z,87.80
2018-03-22T04:13:46.615Z,87.61
2018-03-22T04:16:15.207Z,87.84
2018-03-22T04:18:44.711Z,87.80
2018-03-22T04:21:13.316Z,87.78
2018-03-22T04:23:41.901Z,87.79
2018-03-22T04:26:12.164Z,87.80
2018-03-22T04:28:41.426Z,87.80
2018-03-22T04:31:13.854Z,88.02
2018-03-22T04:33:42.392Z,88.03
2018-03-22T04:36:11.271Z,87.99
2018-03-22T04:38:39.647Z,87.90
2018-03-22T04:41:08.733Z,87.90
2018-03-22T04:43:37.272Z,87.84
2018-03-22T04:46:05.772Z,87.59
2018-03-22T04:48:34.306Z,87.75
2018-03-22T04:51:05.478Z,87.91
2018-03-22T04:53:34.117Z,87.71
2018-03-22T04:56:02.612Z,87.67
2018-03-22T04:58:31.206Z,87.76
2018-03-22T05:00:59.680Z,87.81
2018-03-22T05:03:28.458Z,87.57
2018-03-22T05:05:57.028Z,87.81
2018-03-22T05:08:27.604Z,87.82
2018-03-22T05:10:58.822Z,87.89
2018-03-22T05:13:30.290Z,87.67
2018-03-22T05:16:00.603Z,87.81
2018-03-22T05:18:33.217Z,87.85
2018-03-22T05:21:03.359Z,87.56
2018-03-22T05:23:33.476Z,87.50
2018-03-22T05:26:01.966Z,88.32
2018-03-22T05:28:31.283Z,88.09
2018-03-22T05:31:00.412Z,87.85
2018-03-22T05:33:28.896Z,87.94
2018-03-22T05:35:59.399Z,87.96
2018-03-22T05:38:32.815Z,87.84
2018-03-22T05:41:03.020Z,87.70
2018-03-22T05:43:32.745Z,87.60
2018-03-22T05:46:02.970Z,87.59
2018-03-22T05:48:31.501Z,87.76
2018-03-22T05:51:01.677Z,87.60
2018-03-22T05:53:30.089Z,87.79
2018-03-22T05:55:58.607Z,88.00
2018-03-22T05:58:26.958Z,88.00
2018-03-22T06:00:59.000Z,88.16
2018-03-22T06:03:27.629Z,88.09
2018-03-22T06:05:56.018Z,88.12
2018-03-22T06:08:27.520Z,87.98
2018-03-22T06:10:55.955Z,87.84
2018-03-22T06:13:24.423Z,87.78
2018-03-22T06:15:52.809Z,87.62
2018-03-22T06:18:23.025Z,87.38
2018-03-22T06:20:56.417Z,87.21
2018-03-22T06:23:24.895Z,87.11
2018-03-22T06:25:53.557Z,86.63
2018-03-22T06:28:22.068Z,86.20
2018-03-22T06:30:50.603Z,86.73
2018-03-22T06:33:19.083Z,86.56
2018-03-22T06:35:49.239Z,86.58
2018-03-22T06:38:17.670Z,86.22
2018-03-22T06:40:46.168Z,85.71
2018-03-22T06:43:14.549Z,85.62
2018-03-22T06:45:45.121Z,85.61
2018-03-22T06:48:15.247Z,85.14
2018-03-22T06:50:47.179Z,85.08
2018-03-22T06:53:15.608Z,85.07
2018-03-22T06:55:44.190Z,85.05
2018-03-22T06:58:12.621Z,84.43
2018-03-22T07:00:41.003Z,83.85
2018-03-22T07:03:09.322Z,83.71
2018-03-22T07:05:37.677Z,83.46
2018-03-22T07:08:06.931Z,83.50
2018-03-22T07:10:36.867Z,82.97
2018-03-22T07:13:05.213Z,82.49
2018-03-22T07:15:33.523Z,82.68
2018-03-22T07:18:01.940Z,82.34
2018-03-22T07:20:30.419Z,81.39
2018-03-22T07:22:58.819Z,81.00
2018-03-22T07:25:27.273Z,81.09
2018-03-22T07:27:55.612Z,81.23
2018-03-22T07:30:24.172Z,81.46
2018-03-22T07:32:54.265Z,80.78
2018-03-22T07:35:22.807Z,81.09
2018-03-22T07:37:53.361Z,79.93
2018-03-22T07:40:21.776Z,80.18
2018-03-22T07:42:55.825Z,79.65
2018-03-22T07:45:26.299Z,79.27
2018-03-22T07:47:54.791Z,78.86
2018-03-22T07:50:23.101Z,78.50
2018-03-22T07:52:51.545Z,78.09
2018-03-22T07:55:19.968Z,78.38
2018-03-22T07:57:50.384Z,77.25
2018-03-22T08:00:20.913Z,77.33
2018-03-22T08:02:49.334Z,77.16
2018-03-22T08:05:17.781Z,77.33
2018-03-22T08:07:47.890Z,76.54
2018-03-22T08:10:16.271Z,75.72
2018-03-22T08:12:44.657Z,75.61
2018-03-22T08:15:13.068Z,75.11
2018-03-22T08:17:41.613Z,75.00
2018-03-22T08:20:10.217Z,75.12
2018-03-22T08:22:38.601Z,74.73
2018-03-22T08:25:06.941Z,73.04
2018-03-22T08:27:35.330Z,74.04
2018-03-22T08:30:03.871Z,73.85
2018-03-22T08:32:32.321Z,73.22
2018-03-22T08:35:00.709Z,73.20
2018-03-22T08:37:29.025Z,73.02
2018-03-22T08:39:57.460Z,72.11
2018-03-22T08:42:25.840Z,72.87
2018-03-22T08:44:54.270Z,71.89
2018-03-22T08:49:52.264Z,71.70
2018-03-22T08:54:50.327Z,71.97
2018-03-22T08:57:20.736Z,71.61
2018-03-22T08:59:49.803Z,71.47
2018-03-22T09:02:18.271Z,70.84
2018-03-22T09:04:46.576Z,71.43
2018-03-22T09:07:15.712Z,69.18
2018-03-22T09:09:44.070Z,70.31
2018-03-22T09:12:12.574Z,69.65
2018-03-22T09:14:41.139Z,70.06
2018-03-22T09:17:12.286Z,70.05
2018-03-22T09:19:42.780Z,69.29
2018-03-22T09:22:13.524Z,69.03
2018-03-22T09:24:42.050Z,67.09
2018-03-22T09:27:10.339Z,65.69
2018-03-22T09:29:38.648Z,66.86
2018-03-22T09:32:06.960Z,66.73
2018-03-22T09:34:35.258Z,66.59
2018-03-22T09:37:03.620Z,65.06
2018-03-22T09:39:32.049Z,64.30
2018-03-22T09:42:00.365Z,62.99
2018-03-22T09:44:28.686Z,62.76
2018-03-22T09:46:57.092Z,63.59
2018-03-22T09:49:25.636Z,64.04
2018-03-22T09:51:53.991Z,62.80
2018-03-22T09:54:22.331Z,62.19
2018-03-22T09:56:50.839Z,61.12
2018-03-22T09:59:19.281Z,58.04
2018-03-22T10:01:47.829Z,59.14
2018-03-22T10:04:17.136Z,59.11
2018-03-22T10:06:45.566Z,58.65
2018-03-22T10:09:14.104Z,58.42
2018-03-22T10:11:43.507Z,57.29
2018-03-22T10:14:11.882Z,57.24
2018-03-22T10:16:40.982Z,55.94
2018-03-22T10:19:09.326Z,57.31
2018-03-22T10:21:39.225Z,58.26
2018-03-22T10:24:09.909Z,56.33
2018-03-22T10:26:39.999Z,58.24
2018-03-22T10:29:08.445Z,57.45
2018-03-22T10:31:37.907Z,57.45
2018-03-22T10:34:09.117Z,58.44
2018-03-22T10:36:37.588Z,57.50
2018-03-22T10:39:06.015Z,56.81
2018-03-22T10:41:34.612Z,57.59
2018-03-22T10:44:02.882Z,57.33
2018-03-22T10:46:31.206Z,55.61
2018-03-22T10:49:01.387Z,53.52
2018-03-22T10:51:29.765Z,53.28
2018-03-22T10:53:58.335Z,51.90
2018-03-22T10:56:26.657Z,51.75
2018-03-22T10:58:55.661Z,50.84
2018-03-22T11:01:29.752Z,52.14
2018-03-22T11:03:58.423Z,52.11
2018-03-22T11:06:27.566Z,51.60
2018-03-22T11:08:55.906Z,49.77
2018-03-22T11:11:24.258Z,47.68
2018-03-22T11:13:52.575Z,48.62
2018-03-22T11:16:20.931Z,51.00
2018-03-22T11:18:49.320Z,51.07
2018-03-22T11:21:17.684Z,50.23
2018-03-22T11:23:46.025Z,47.92
2018-03-22T11:26:14.408Z,48.52
2018-03-22T11:28:44.577Z,47.31
2018-03-22T11:31:14.547Z,46.11
2018-03-22T11:33:43.019Z,46.54
2018-03-22T11:36:12.044Z,47.46
2018-03-22T11:38:40.353Z,47.60
2018-03-22T11:41:08.741Z,48.53
2018-03-22T11:43:37.054Z,50.07
2018-03-22T11:46:05.391Z,50.69
2018-03-22T11:48:33.847Z,50.50
2018-03-22T11:51:02.121Z,50.51
2018-03-22T11:53:33.388Z,48.53
2018-03-22T11:56:05.669Z,48.11
2018-03-22T11:58:36.506Z,49.04
2018-03-22T12:01:04.970Z,49.78
2018-03-22T12:03:33.316Z,49.12
2018-03-22T12:06:01.627Z,49.34
2018-03-22T12:08:30.118Z,48.34
2018-03-22T12:10:58.469Z,47.38
2018-03-22T12:13:27.802Z,48.71
2018-03-22T12:15:58.967Z,47.98
2018-03-22T12:18:27.312Z,47.96
2018-03-22T12:20:56.725Z,46.61
2018-03-22T12:23:25.035Z,48.24
2018-03-22T12:25:53.385Z,48.17
2018-03-22T12:28:21.808Z,47.55
2018-03-22T12:30:50.121Z,47.36
2018-03-22T12:33:19.563Z,46.29
2018-03-22T12:35:48.634Z,48.12
2018-03-22T12:38:17.000Z,48.77
2018-03-22T12:40:46.123Z,47.53
2018-03-22T12:43:14.604Z,46.68
2018-03-22T12:45:42.922Z,47.92
2018-03-22T12:48:14.067Z,48.93
2018-03-22T12:50:42.458Z,47.93
2018-03-22T12:53:13.406Z,48.15
2018-03-22T12:55:41.793Z,48.19
2018-03-22T12:58:10.145Z,49.46
2018-03-22T13:00:40.294Z,48.06
2018-03-22T13:03:09.904Z,49.76
2018-03-22T13:05:39.961Z,50.82
2018-03-22T13:08:08.744Z,49.62
2018-03-22T13:10:37.195Z,48.92
2018-03-22T13:13:05.591Z,47.77
2018-03-22T13:15:36.685Z,49.19
2018-03-22T13:18:06.683Z,48.99
2018-03-22T13:20:35.064Z,47.99
2018-03-22T13:23:03.495Z,48.47
2018-03-22T13:25:34.529Z,47.96
2018-03-22T13:28:04.240Z,49.11
2018-03-22T13:30:34.151Z,48.77
2018-03-22T13:33:02.574Z,48.89
2018-03-22T13:35:30.991Z,48.40
2018-03-22T13:37:59.371Z,49.30
2018-03-22T13:40:28.591Z,48.72
2018-03-22T13:42:57.687Z,49.00
2018-03-22T13:45:27.797Z,46.06
2018-03-22T13:47:56.157Z,47.11
2018-03-22T13:50:24.702Z,47.83
2018-03-22T13:52:53.759Z,47.08
2018-03-22T13:55:22.288Z,46.20
2018-03-22T13:57:51.357Z,46.31
2018-03-22T14:00:20.990Z,47.61
2018-03-22T14:02:49.365Z,45.63
2018-03-22T14:05:17.722Z,46.63
2018-03-22T14:07:46.048Z,47.51
2018-03-22T14:10:14.350Z,47.46
2018-03-22T14:12:42.995Z,48.51
2018-03-22T14:15:11.341Z,48.68
2018-03-22T14:17:39.750Z,49.11
2018-03-22T14:20:11.423Z,49.15
2018-03-22T14:22:40.927Z,49.51
2018-03-22T14:25:09.248Z,48.59
2018-03-22T14:27:37.528Z,47.92
2018-03-22T14:30:08.695Z,49.73
2018-03-22T14:32:38.690Z,49.42
2018-03-22T14:35:07.157Z,50.17
2018-03-22T14:37:35.619Z,50.29
2018-03-22T14:40:05.866Z,48.37
2018-03-22T14:42:36.024Z,48.70
2018-03-22T14:45:04.515Z,49.03
2018-03-22T14:47:32.837Z,49.84
2018-03-22T14:50:01.282Z,49.52
2018-03-22T14:52:29.674Z,49.39
2018-03-22T14:54:59.207Z,49.76
2018-03-22T14:57:27.543Z,49.32
2018-03-22T14:59:57.605Z,49.07
2018-03-22T15:02:26.077Z,50.62
2018-03-22T15:04:54.405Z,50.74
2018-03-22T15:07:22.764Z,49.54
2018-03-22T15:09:52.116Z,48.74
2018-03-22T15:12:20.446Z,49.28
2018-03-22T15:14:48.776Z,51.43
2018-03-22T15:17:19.744Z,51.77
2018-03-22T15:19:48.248Z,52.39
2018-03-22T15:22:18.242Z,53.18
2018-03-22T15:24:46.615Z,53.65
2018-03-22T15:27:14.937Z,50.51
2018-03-22T15:29:45.370Z,52.41
2018-03-22T15:32:13.727Z,52.60
2018-03-22T15:34:43.696Z,52.90
2018-03-22T15:46:57.190Z,52.23
2018-03-22T15:49:25.642Z,51.14
2018-03-22T15:51:53.952Z,53.07
2018-03-22T15:54:23.283Z,52.20
2018-03-22T15:56:51.628Z,52.24
2018-03-22T15:59:20.717Z,52.11
2018-03-22T16:01:49.059Z,51.56
2018-03-22T16:04:19.896Z,50.81
2018-03-22T16:06:48.316Z,51.48
2018-03-22T16:09:18.347Z,53.45
2018-03-22T16:11:46.715Z,53.64
2018-03-22T16:14:15.302Z,53.58
2018-03-22T16:16:43.657Z,53.31
2018-03-22T16:19:11.997Z,54.53
2018-03-22T16:21:40.368Z,54.67
2018-03-22T16:24:08.850Z,55.17
2018-03-22T16:26:40.080Z,54.14
2018-03-22T16:29:10.192Z,55.30
2018-03-22T16:31:39.597Z,53.86
2018-03-22T16:34:08.162Z,55.78
2018-03-22T16:36:36.593Z,57.65
2018-03-22T16:39:05.082Z,62.04
2018-03-22T16:41:33.759Z,64.33
2018-03-22T16:44:02.216Z,65.52
2018-03-22T16:46:31.638Z,67.36
2018-03-22T16:49:01.023Z,68.54
2018-03-22T16:51:31.050Z,70.01
2018-03-22T16:53:59.480Z,71.47
2018-03-22T16:56:27.810Z,72.42
2018-03-22T16:58:56.176Z,72.95
2018-03-22T17:01:24.665Z,74.22
2018-03-22T17:03:53.787Z,74.85
2018-03-22T17:06:24.637Z,75.42
2018-03-22T17:08:53.421Z,75.42
2018-03-22T17:11:23.058Z,75.86
2018-03-22T17:13:51.507Z,76.70
2018-03-22T17:16:21.528Z,76.67
2018-03-22T17:18:51.588Z,77.20
2018-03-22T17:21:22.618Z,77.39
2018-03-22T17:23:52.677Z,78.76
2018-03-22T17:26:21.525Z,79.55
2018-03-22T17:28:49.919Z,79.71
2018-03-22T17:31:18.275Z,81.24
2018-03-22T17:33:48.853Z,81.96
2018-03-22T17:36:17.406Z,82.93
2018-03-22T17:38:46.691Z,83.47
2018-03-22T17:41:16.227Z,84.08
2018-03-22T17:43:44.648Z,84.77
2018-03-22T17:46:13.195Z,85.09
2018-03-22T17:48:41.674Z,85.80
2018-03-22T17:51:10.120Z,86.32
2018-03-22T17:53:39.872Z,86.59
2018-03-22T17:56:10.213Z,87.28
2018-03-22T17:58:38.622Z,87.84
2018-03-22T18:01:07.270Z,87.90
2018-03-22T18:03:37.419Z,88.19
2018-03-22T18:06:08.016Z,88.63
2018-03-22T18:08:38.979Z,89.40
2018-03-22T18:11:08.307Z,89.71
2018-03-22T18:13:36.890Z,89.76
2018-03-22T18:16:06.260Z,90.26
2018-03-22T18:18:34.668Z,90.43
2018-03-22T18:21:03.433Z,90.76
2018-03-22T18:23:33.505Z,90.69
2018-03-22T18:26:01.889Z,91.03
2018-03-22T18:28:32.399Z,90.88
2018-03-22T18:31:01.691Z,91.14
2018-03-22T18:33:30.251Z,91.25
2018-03-22T18:35:58.652Z,91.14
2018-03-22T18:38:27.061Z,91.15
2018-03-22T18:40:57.600Z,91.20
2018-03-22T18:43:26.001Z,91.33
2018-03-22T18:45:56.297Z,91.47
2018-03-22T18:48:27.199Z,91.58
2018-03-22T18:50:56.539Z,91.33
2018-03-22T18:53:25.821Z,91.25
2018-03-22T18:55:56.813Z,91.29
2018-03-22T18:58:25.368Z,91.22
2018-03-22T19:00:53.766Z,91.20
2018-03-22T19:03:22.256Z,91.21
2018-03-22T19:05:50.791Z,91.50
2018-03-22T19:08:19.309Z,91.58
2018-03-22T19:10:48.404Z,91.56
2018-03-22T19:13:16.852Z,91.77
2018-03-22T19:15:46.316Z,91.78
2018-03-22T19:18:14.772Z,92.03
2018-03-22T19:20:43.540Z,92.17
2018-03-22T19:23:14.618Z,92.35
2018-03-22T19:25:44.881Z,92.66
2018-03-22T19:28:15.791Z,92.84
2018-03-22T19:30:44.189Z,92.91
2018-03-22T19:33:14.355Z,92.97
2018-03-22T19:35:42.789Z,93.26
2018-03-22T19:38:11.460Z,93.31
2018-03-22T19:40:39.925Z,93.30
2018-03-22T19:43:10.476Z,93.28
2018-03-22T19:45:41.228Z,93.25
2018-03-22T20:01:12.581Z,93.87
2018-03-22T20:03:42.822Z,94.07
2018-03-22T20:06:11.266Z,94.18
2018-03-22T20:08:39.954Z,94.12
2018-03-22T20:11:08.453Z,94.17
2018-03-22T20:13:38.133Z,94.26
2018-03-22T20:16:06.605Z,94.29
2018-03-22T20:18:36.011Z,94.48
2018-03-22T20:21:04.710Z,94.43
2018-03-22T20:23:35.745Z,94.39
2018-03-22T20:26:04.314Z,94.48
2018-03-22T20:28:34.284Z,94.28
2018-03-22T20:31:04.365Z,94.57
2018-03-22T20:33:35.725Z,94.65
2018-03-22T20:36:04.101Z,94.89
2018-03-22T20:38:32.493Z,95.12
2018-03-22T20:41:01.032Z,95.36
2018-03-22T20:43:29.417Z,95.49
2018-03-22T20:45:58.180Z,95.57
2018-03-22T20:48:28.409Z,95.68
2018-03-22T20:50:56.886Z,95.76
2018-03-22T20:53:25.461Z,95.77
2018-03-22T20:55:53.908Z,95.67
2018-03-22T20:58:24.593Z,95.49
2018-03-22T21:00:54.113Z,95.44
2018-03-22T21:03:22.684Z,95.38
2018-03-22T21:05:51.253Z,95.51
2018-03-22T21:08:19.744Z,95.48
2018-03-22T21:10:50.954Z,95.32
2018-03-22T21:13:20.370Z,95.25
2018-03-22T21:15:50.522Z,95.23
2018-03-22T21:18:19.600Z,95.20
2018-03-22T21:20:48.155Z,95.13
2018-03-22T21:23:18.235Z,95.12
2018-03-22T21:25:47.018Z,95.21
2018-03-22T21:28:15.808Z,95.07
2018-03-22T21:30:46.234Z,94.99
2018-03-22T21:33:16.298Z,95.00
2018-03-22T21:35:44.665Z,94.93
2018-03-22T21:38:13.313Z,94.87
2018-03-22T21:40:43.644Z,94.80
2018-03-22T21:43:12.190Z,94.67
2018-03-22T21:45:40.851Z,94.59
2018-03-22T21:48:09.346Z,94.63
2018-03-22T21:50:50.247Z,94.56
2018-03-22T21:53:20.507Z,94.55
2018-03-22T21:55:51.574Z,94.38
2018-03-22T21:58:20.404Z,94.29
2018-03-22T22:00:48.754Z,94.21
2018-03-22T22:03:18.653Z,93.90
2018-03-22T22:05:47.213Z,93.99
2018-03-22T22:08:16.303Z,93.97
2018-03-22T22:10:44.846Z,93.89
2018-03-22T22:13:15.052Z,93.96
2018-03-22T22:15:43.479Z,93.96
2018-03-22T22:18:11.802Z,93.76
2018-03-22T22:20:40.202Z,93.71
2018-03-22T22:23:08.555Z,93.82
2018-03-22T22:25:37.747Z,93.90
2018-03-22T22:28:06.102Z,94.02
2018-03-22T22:30:37.494Z,93.93
2018-03-22T22:33:06.061Z,94.07
2018-03-22T22:35:34.387Z,94.13
2018-03-22T22:38:02.744Z,94.13
2018-03-22T22:40:31.062Z,94.15
2018-03-22T22:42:59.490Z,94.04
2018-03-22T22:45:27.952Z,94.08
2018-03-22T22:47:56.388Z,94.02
2018-03-22T22:50:26.325Z,94.09
2018-03-22T22:52:56.598Z,94.20
2018-03-22T22:55:25.971Z,94.16
2018-03-22T22:57:54.339Z,94.14
2018-03-22T23:00:22.664Z,94.21
2018-03-22T23:02:51.169Z,94.23
2018-03-22T23:05:19.533Z,94.15
2018-03-22T23:07:48.168Z,94.21
2018-03-22T23:10:16.510Z,94.33
2018-03-22T23:12:44.888Z,94.43
2018-03-22T23:15:13.345Z,94.35
2018-03-22T23:17:43.944Z,94.30
2018-03-22T23:20:12.301Z,94.29
2018-03-22T23:22:40.634Z,94.23
2018-03-22T23:25:09.078Z,94.33
2018-03-22T23:27:38.565Z,94.46
2018-03-22T23:30:08.707Z,94.48
2018-03-22T23:32:37.221Z,94.57
2018-03-22T23:35:05.727Z,94.58
2018-03-22T23:37:34.142Z,94.56
2018-03-22T23:40:02.592Z,94.62
2018-03-22T23:42:30.934Z,94.50
2018-03-22T23:44:59.225Z,94.44
2018-03-22T23:47:27.550Z,94.69
2018-03-22T23:49:55.870Z,94.76
2018-03-22T23:52:24.239Z,94.79
2018-03-22T23:54:52.517Z,94.75
2018-03-22T23:57:20.873Z,94.88
2018-03-22T23:59:49.160Z,94.92
